Terminal Aerodrome Forecast
Issued by NWS

Home | Current Version | Previous Version | Text Only | Print | Product List | Glossary On
Versions: 1 2 3 4 5 6 7 8 9 10 11 12 13 14 15 16 17 18 19
319
FTUS41 KAKQ 030231 AAC
TAFPHF
TAF AMD
KPHF 030231Z 0303/0324 21007KT P6SM VCSH SCT050 BKN080
     FM030600 21011KT 4SM -SHRA BKN015
     FM031100 22012KT 4SM -SHRA OVC015
     FM031900 25008KT P6SM SCT015 BKN035=

USA.gov is the U.S. government's official web portal to all federal, state and local government web resources and services.